Aviation Digital Data Service (ADDS)

Output produced by TAFs form (1959 UTC 25 February 2018)
found at http://aviationweather.gov/adds/tafs/
 
KPIT 251951Z 25015G20KT 10SM OVC180 12/M01 A2991 RMK AO2 SLP136 T01221011
KPIT 251736Z 2518/2624 25014G20KT P6SM FEW025 BKN250 
     FM252300 25009KT P6SM BKN250 
     FM260900 27004KT P6SM SCT250
       
KBVI 251847Z 26017G23KT 10SM CLR 11/M03 A2991
KBVI 251736Z 2518/2618 25014G20KT P6SM FEW025 BKN250 
     FM252300 25009KT P6SM BKN250 
     FM260900 27004KT P6SM SCT250
       
KFKL 251956Z AUTO 26012KT 10SM CLR 11/M04 A2988 RMK AO2 SLP126 T01061039
KFKL 251736Z 2518/2618 27012G18KT P6SM BKN250 
     FM260000 27009KT P6SM SCT250 
     FM260600 26004KT P6SM FEW250
       
KERI 251951Z 25017G32KT 10SM CLR 04/M01 A2990 RMK AO2 PK WND 24032/1945 SLP129 T00441006
KERI 251732Z 2518/2618 26015G25KT P6SM OVC250 
     FM252300 23010KT P6SM BKN250 
     FM261500 26010KT P6SM SKC